createdAt,value
2019-05-25T00:00:31.083Z,19.91
2019-05-25T00:03:02.194Z,19.90
2019-05-25T00:05:33.283Z,19.87
2019-05-25T00:08:04.589Z,19.83
2019-05-25T00:10:35.711Z,19.79
2019-05-25T00:13:06.824Z,19.76
2019-05-25T00:15:37.916Z,19.72
2019-05-25T00:18:09.182Z,19.68
2019-05-25T00:20:40.337Z,19.63
2019-05-25T00:23:11.524Z,19.61
2019-05-25T00:25:42.660Z,19.57
2019-05-25T00:28:13.746Z,19.55
2019-05-25T00:30:44.853Z,19.50
2019-05-25T00:33:15.999Z,19.47
2019-05-25T00:35:47.161Z,19.43
2019-05-25T00:38:18.287Z,19.38
2019-05-25T00:40:49.431Z,19.33
2019-05-25T00:43:20.529Z,19.31
2019-05-25T00:45:51.773Z,19.28
2019-05-25T00:48:22.862Z,19.25
2019-05-25T00:50:53.992Z,19.24
2019-05-25T00:53:25.533Z,19.21
2019-05-25T00:55:56.643Z,19.21
2019-05-25T00:58:27.792Z,19.21
2019-05-25T01:00:59.072Z,19.21
2019-05-25T01:03:30.478Z,19.22
2019-05-25T01:06:02.396Z,19.22
2019-05-25T01:08:33.675Z,19.23
2019-05-25T01:11:04.955Z,19.23
2019-05-25T01:13:36.388Z,19.24
2019-05-25T01:16:07.771Z,19.24
2019-05-25T01:18:39.140Z,19.25
2019-05-25T01:21:10.397Z,19.26
2019-05-25T01:23:41.932Z,19.24
2019-05-25T01:26:13.101Z,19.26
2019-05-25T01:28:44.338Z,19.26
2019-05-25T01:31:15.551Z,19.26
2019-05-25T01:33:46.845Z,19.25
2019-05-25T01:36:18.153Z,19.27
2019-05-25T01:38:49.333Z,19.27
2019-05-25T01:41:20.606Z,19.27
2019-05-25T01:43:51.920Z,19.25
2019-05-25T01:46:23.143Z,19.24
2019-05-25T01:48:54.644Z,19.22
2019-05-25T01:51:25.788Z,19.21
2019-05-25T01:53:56.932Z,19.20
2019-05-25T01:56:28.059Z,19.19
2019-05-25T01:58:59.328Z,19.16
2019-05-25T02:01:30.653Z,19.15
2019-05-25T02:04:03.111Z,19.16
2019-05-25T02:06:34.245Z,19.15
2019-05-25T02:09:08.220Z,19.13
2019-05-25T02:11:39.447Z,19.13
2019-05-25T02:14:11.091Z,19.14
2019-05-25T02:16:42.264Z,19.12
2019-05-25T02:19:13.534Z,19.13
2019-05-25T02:21:44.801Z,19.13
2019-05-25T02:24:17.080Z,19.14
2019-05-25T02:26:48.271Z,19.13
2019-05-25T02:29:19.513Z,19.13
2019-05-25T02:31:50.821Z,19.11
2019-05-25T02:34:21.975Z,19.12
2019-05-25T02:36:53.169Z,19.11
2019-05-25T02:39:24.378Z,19.11
2019-05-25T02:41:56.832Z,19.09
2019-05-25T02:44:28.096Z,19.08
2019-05-25T02:46:59.273Z,19.08
2019-05-25T02:49:30.427Z,19.07
2019-05-25T02:52:01.636Z,19.07
2019-05-25T02:54:32.897Z,19.06
2019-05-25T02:57:04.152Z,19.05
2019-05-25T02:59:36.291Z,19.04
2019-05-25T03:02:07.479Z,19.03
2019-05-25T03:04:38.762Z,19.03
2019-05-25T03:07:10.354Z,19.02
2019-05-25T03:09:43.386Z,19.01
2019-05-25T03:12:14.828Z,19.03
2019-05-25T03:14:46.120Z,19.01
2019-05-25T03:17:17.502Z,18.99
2019-05-25T03:19:48.798Z,18.99
2019-05-25T03:22:19.973Z,18.99
2019-05-25T03:24:51.210Z,18.97
2019-05-25T03:27:22.505Z,18.97
2019-05-25T03:29:53.845Z,18.96
2019-05-25T03:32:25.192Z,18.96
2019-05-25T03:34:56.406Z,18.96
2019-05-25T03:37:27.978Z,18.95
2019-05-25T03:39:59.077Z,18.93
2019-05-25T03:42:30.323Z,18.93
2019-05-25T03:45:01.588Z,18.93
2019-05-25T03:47:32.979Z,18.93
2019-05-25T03:50:04.786Z,18.92
2019-05-25T03:52:36.422Z,18.92
2019-05-25T03:55:07.994Z,18.91
2019-05-25T03:57:39.379Z,18.92
2019-05-25T04:00:11.399Z,18.92
2019-05-25T04:02:42.643Z,18.92
2019-05-25T04:05:13.864Z,18.92
2019-05-25T04:07:45.072Z,18.92
2019-05-25T04:10:17.790Z,18.90
2019-05-25T04:12:49.255Z,18.89
2019-05-25T04:15:20.487Z,18.88
2019-05-25T04:17:51.605Z,18.88
2019-05-25T04:20:23.012Z,18.88
2019-05-25T04:22:54.183Z,18.86
2019-05-25T04:25:25.294Z,18.86
2019-05-25T04:27:56.387Z,18.85
2019-05-25T04:30:27.609Z,18.84
2019-05-25T04:32:58.829Z,18.83
2019-05-25T04:35:30.027Z,18.82
2019-05-25T04:38:02.802Z,18.79
2019-05-25T04:40:34.090Z,18.79
2019-05-25T04:43:05.256Z,18.79
2019-05-25T04:45:36.377Z,18.77
2019-05-25T04:48:08.229Z,18.77
2019-05-25T04:50:39.367Z,18.75
2019-05-25T04:53:10.466Z,18.70
2019-05-25T04:55:41.596Z,18.67
2019-05-25T04:58:12.804Z,18.65
2019-05-25T05:00:44.106Z,18.64
2019-05-25T05:03:15.219Z,18.65
2019-05-25T05:05:46.370Z,18.64
2019-05-25T05:08:17.873Z,18.66
2019-05-25T05:10:49.048Z,18.67
2019-05-25T05:13:20.365Z,18.67
2019-05-25T05:15:51.565Z,18.68
2019-05-25T05:18:22.789Z,18.70
2019-05-25T05:20:53.903Z,18.68
2019-05-25T05:23:25.061Z,18.68
2019-05-25T05:25:55.993Z,18.68
2019-05-25T05:28:27.079Z,18.68
2019-05-25T05:30:58.251Z,18.65
2019-05-25T05:33:29.431Z,18.63
2019-05-25T05:36:01.527Z,18.63
2019-05-25T05:38:34.459Z,18.65
2019-05-25T05:41:05.928Z,18.65
2019-05-25T05:43:38.952Z,18.64
2019-05-25T05:46:13.060Z,18.62
2019-05-25T05:48:46.156Z,18.56
2019-05-25T05:51:20.957Z,18.52
2019-05-25T05:53:56.392Z,18.49
2019-05-25T05:56:27.781Z,18.48
2019-05-25T05:58:59.006Z,18.48
2019-05-25T06:01:30.335Z,18.48
2019-05-25T06:04:01.823Z,18.46
2019-05-25T06:06:33.001Z,18.44
2019-05-25T06:09:05.828Z,18.44
2019-05-25T06:11:37.020Z,18.42
2019-05-25T06:14:08.224Z,18.41
2019-05-25T06:16:39.399Z,18.40
2019-05-25T06:19:10.570Z,18.37
2019-05-25T06:21:41.661Z,18.32
2019-05-25T06:24:13.158Z,18.31
2019-05-25T06:26:46.068Z,18.34
2019-05-25T06:29:18.834Z,18.34
2019-05-25T06:31:50.231Z,18.37
2019-05-25T06:34:21.320Z,18.35
2019-05-25T06:36:52.548Z,18.35
2019-05-25T06:39:23.658Z,18.36
2019-05-25T06:41:54.764Z,18.38
2019-05-25T06:44:25.833Z,18.38
2019-05-25T06:46:56.935Z,18.38
2019-05-25T06:49:28.001Z,18.37
2019-05-25T06:51:59.127Z,18.38
2019-05-25T06:54:30.209Z,18.39
2019-05-25T06:57:01.335Z,18.40
2019-05-25T06:59:32.414Z,18.41
2019-05-25T07:02:03.573Z,18.45
2019-05-25T07:04:34.633Z,18.43
2019-05-25T07:07:05.949Z,18.44
2019-05-25T07:09:37.092Z,18.43
2019-05-25T07:12:08.148Z,18.44
2019-05-25T07:14:39.259Z,18.46
2019-05-25T07:17:10.371Z,18.47
2019-05-25T07:19:41.501Z,18.48
2019-05-25T07:22:13.484Z,18.46
2019-05-25T07:24:44.572Z,18.45
2019-05-25T07:27:17.133Z,18.46
2019-05-25T07:29:48.261Z,18.45
2019-05-25T07:32:22.691Z,18.46
2019-05-25T07:34:53.919Z,18.45
2019-05-25T07:37:25.009Z,18.46
2019-05-25T07:39:56.093Z,18.48
2019-05-25T07:42:27.246Z,18.51
2019-05-25T07:44:58.397Z,18.54
2019-05-25T07:47:31.457Z,18.57
2019-05-25T07:50:08.063Z,18.61
2019-05-25T07:52:39.183Z,18.63
2019-05-25T07:55:10.618Z,18.65
2019-05-25T07:57:41.759Z,18.63
2019-05-25T08:00:13.516Z,18.61
2019-05-25T08:02:44.631Z,18.59
2019-05-25T08:05:17.246Z,18.58
2019-05-25T08:07:48.407Z,18.60
2019-05-25T08:10:21.369Z,18.62
2019-05-25T08:12:52.468Z,18.66
2019-05-25T08:15:23.850Z,18.68
2019-05-25T08:17:54.923Z,18.68
2019-05-25T08:20:26.050Z,18.70
2019-05-25T08:22:57.165Z,18.72
2019-05-25T08:25:28.230Z,18.72
2019-05-25T08:27:59.467Z,18.73
2019-05-25T08:30:31.678Z,18.72
2019-05-25T08:33:02.752Z,18.74
2019-05-25T08:35:33.883Z,18.76
2019-05-25T08:38:05.062Z,18.79
2019-05-25T08:40:36.150Z,18.83
2019-05-25T08:43:07.250Z,18.82
2019-05-25T08:45:38.347Z,18.79
2019-05-25T08:48:09.442Z,18.79
2019-05-25T08:50:40.539Z,18.79
2019-05-25T08:53:11.636Z,18.81
2019-05-25T08:55:42.796Z,18.79
2019-05-25T08:58:14.154Z,18.82
2019-05-25T09:00:45.626Z,18.83
2019-05-25T09:03:17.067Z,18.85
2019-05-25T09:05:48.182Z,18.88
2019-05-25T09:08:19.323Z,18.90
2019-05-25T09:10:50.510Z,18.91
2019-05-25T09:13:21.588Z,18.91
2019-05-25T09:15:52.714Z,18.92
2019-05-25T09:18:23.780Z,18.95
2019-05-25T09:20:54.926Z,18.99
2019-05-25T09:23:26.033Z,19.06
2019-05-25T09:25:57.159Z,19.13
2019-05-25T09:28:28.277Z,19.18
2019-05-25T09:30:59.391Z,19.24
2019-05-25T09:33:30.495Z,19.31
2019-05-25T09:36:01.884Z,19.35
2019-05-25T09:38:34.624Z,19.39
2019-05-25T09:41:05.803Z,19.42
2019-05-25T09:43:36.983Z,19.39
2019-05-25T09:46:08.178Z,19.33
2019-05-25T09:48:39.262Z,19.27
2019-05-25T09:51:15.185Z,19.23
2019-05-25T09:53:43.197Z,19.20
2019-05-25T09:56:14.576Z,19.20
2019-05-25T09:58:45.703Z,19.22
2019-05-25T10:01:16.925Z,19.23
2019-05-25T10:03:48.032Z,19.24
2019-05-25T10:06:19.253Z,19.28
2019-05-25T10:08:50.364Z,19.27
2019-05-25T10:11:21.497Z,19.27
2019-05-25T10:13:52.589Z,19.24
2019-05-25T10:16:23.717Z,19.21
2019-05-25T10:18:54.841Z,19.20
2019-05-25T10:21:25.945Z,19.20
2019-05-25T10:23:57.082Z,19.21
2019-05-25T10:26:28.183Z,19.21
2019-05-25T10:28:59.325Z,19.20
2019-05-25T10:31:30.438Z,19.17
2019-05-25T10:34:01.554Z,19.14
2019-05-25T10:36:32.681Z,19.13
2019-05-25T10:39:05.178Z,19.11
2019-05-25T10:41:37.551Z,19.09
2019-05-25T10:44:08.695Z,19.10
2019-05-25T10:46:39.879Z,19.13
2019-05-25T10:49:11.841Z,19.16
2019-05-25T10:51:43.166Z,19.21
2019-05-25T10:54:14.961Z,19.23
2019-05-25T10:56:46.093Z,19.25
2019-05-25T10:59:17.296Z,19.27
2019-05-25T11:01:48.466Z,19.26
2019-05-25T11:04:19.636Z,19.25
2019-05-25T11:06:50.713Z,19.23
2019-05-25T11:09:21.831Z,19.19
2019-05-25T11:11:52.969Z,19.13
2019-05-25T11:14:24.162Z,19.11
2019-05-25T11:16:55.268Z,19.09
2019-05-25T11:19:26.393Z,19.08
2019-05-25T11:21:57.467Z,19.06
2019-05-25T11:24:28.601Z,19.04
2019-05-25T11:26:59.876Z,19.04
2019-05-25T11:29:31.073Z,19.03
2019-05-25T11:32:05.074Z,19.04
2019-05-25T11:34:35.089Z,19.01
2019-05-25T11:37:06.183Z,18.99
2019-05-25T11:39:37.327Z,18.97
2019-05-25T11:42:08.414Z,18.97
2019-05-25T11:44:39.524Z,18.96
2019-05-25T11:47:10.627Z,18.93
2019-05-25T11:49:44.695Z,18.89
2019-05-25T11:52:17.139Z,18.84
2019-05-25T11:54:48.260Z,18.81
2019-05-25T11:57:20.429Z,18.81
2019-05-25T11:59:51.551Z,18.79
2019-05-25T12:02:22.702Z,18.79
2019-05-25T12:04:53.825Z,18.79
2019-05-25T12:07:24.904Z,18.82
2019-05-25T12:09:56.383Z,18.83
2019-05-25T12:12:27.464Z,18.87
2019-05-25T12:14:58.574Z,18.90
2019-05-25T12:17:29.660Z,18.90
2019-05-25T12:20:00.765Z,18.91
2019-05-25T12:22:31.892Z,18.91
2019-05-25T12:25:03.018Z,18.92
2019-05-25T12:27:34.093Z,18.94
2019-05-25T12:30:07.994Z,18.95
2019-05-25T12:32:39.121Z,18.95
2019-05-25T12:35:10.552Z,18.98
2019-05-25T12:37:41.636Z,18.99
2019-05-25T12:40:13.884Z,19.03
2019-05-25T12:42:45.964Z,19.08
2019-05-25T12:45:17.187Z,19.14
2019-05-25T12:47:48.298Z,19.21
2019-05-25T12:50:19.610Z,19.27
2019-05-25T12:52:50.730Z,19.30
2019-05-25T12:55:21.851Z,19.30
2019-05-25T12:57:52.942Z,19.29
2019-05-25T13:00:24.399Z,19.34
2019-05-25T13:02:56.687Z,19.38
2019-05-25T13:05:34.354Z,19.41
2019-05-25T13:08:00.577Z,19.45
2019-05-25T13:10:31.687Z,19.51
2019-05-25T13:13:02.750Z,19.56
2019-05-25T13:15:33.854Z,19.59
2019-05-25T13:18:04.970Z,19.61
2019-05-25T13:20:36.340Z,19.65
2019-05-25T13:23:07.536Z,19.70
2019-05-25T13:25:38.644Z,19.70
2019-05-25T13:28:09.749Z,19.72
2019-05-25T13:30:40.839Z,19.73
2019-05-25T13:33:12.047Z,19.77
2019-05-25T13:35:43.150Z,19.80
2019-05-25T13:38:14.256Z,19.82
2019-05-25T13:40:45.363Z,19.86
2019-05-25T13:43:16.849Z,19.92
2019-05-25T13:45:47.944Z,19.98
2019-05-25T13:48:19.166Z,20.02
2019-05-25T13:50:50.259Z,20.05
2019-05-25T13:53:21.390Z,20.09
2019-05-25T13:55:52.586Z,20.12
2019-05-25T13:58:23.716Z,20.15
2019-05-25T14:00:54.873Z,20.18
2019-05-25T14:03:26.110Z,20.17
2019-05-25T14:05:57.262Z,20.19
2019-05-25T14:08:28.471Z,20.24
2019-05-25T14:10:59.643Z,20.34
2019-05-25T14:13:30.755Z,20.42
2019-05-25T14:16:07.105Z,20.46
2019-05-25T14:18:34.762Z,20.46
2019-05-25T14:21:05.950Z,20.47
2019-05-25T14:23:37.097Z,20.44
2019-05-25T14:26:08.176Z,20.41
2019-05-25T14:28:39.294Z,20.40
2019-05-25T14:31:10.469Z,20.35
2019-05-25T14:33:41.603Z,20.31
2019-05-25T14:36:12.776Z,20.28
2019-05-25T14:38:43.869Z,20.23
2019-05-25T14:41:14.973Z,20.20
2019-05-25T14:43:46.240Z,20.19
2019-05-25T14:46:27.464Z,20.18
2019-05-25T14:48:50.860Z,20.17
2019-05-25T14:51:22.057Z,20.14
2019-05-25T14:53:53.230Z,20.11
2019-05-25T14:56:24.316Z,20.08
2019-05-25T14:58:55.148Z,20.04
2019-05-25T15:01:26.267Z,20.02
2019-05-25T15:03:57.447Z,20.02
2019-05-25T15:06:28.535Z,20.02
2019-05-25T15:08:59.684Z,20.04
2019-05-25T15:11:30.926Z,20.06
2019-05-25T15:14:01.990Z,20.08
2019-05-25T15:16:33.173Z,20.11
2019-05-25T15:19:04.298Z,20.13
2019-05-25T15:21:35.489Z,20.15
2019-05-25T15:24:06.769Z,20.17
2019-05-25T15:26:37.962Z,20.18
2019-05-25T15:29:11.336Z,20.17
2019-05-25T15:31:41.914Z,20.18
2019-05-25T15:34:13.065Z,20.18
2019-05-25T15:36:45.965Z,20.16
2019-05-25T15:39:17.595Z,20.18
2019-05-25T15:41:48.706Z,20.17
2019-05-25T15:44:19.817Z,20.17
2019-05-25T15:46:50.960Z,20.14
2019-05-25T15:49:32.474Z,20.11
2019-05-25T15:51:54.901Z,20.10
2019-05-25T15:54:26.093Z,20.04
2019-05-25T15:56:57.191Z,20.01
2019-05-25T15:59:28.366Z,19.97
2019-05-25T16:01:59.472Z,19.97
2019-05-25T16:04:30.647Z,19.97
2019-05-25T16:07:01.793Z,19.99
2019-05-25T16:09:32.909Z,19.96
2019-05-25T16:12:04.158Z,19.98
2019-05-25T16:14:35.255Z,20.00
2019-05-25T16:17:06.384Z,20.02
2019-05-25T16:19:37.545Z,20.04
2019-05-25T16:22:08.679Z,20.07
2019-05-25T16:24:39.816Z,20.09
2019-05-25T16:27:10.924Z,20.13
2019-05-25T16:29:41.992Z,20.15
2019-05-25T16:32:13.220Z,20.15
2019-05-25T16:34:44.372Z,20.17
2019-05-25T16:37:16.928Z,20.17
2019-05-25T16:39:48.332Z,20.16
2019-05-25T16:42:19.493Z,20.15
2019-05-25T16:44:50.605Z,20.14
2019-05-25T16:47:23.526Z,20.11
2019-05-25T16:49:54.591Z,20.08
2019-05-25T16:52:25.824Z,20.06
2019-05-25T16:54:56.925Z,20.05
2019-05-25T16:57:28.027Z,20.03
2019-05-25T16:59:59.131Z,20.02
2019-05-25T17:02:30.581Z,20.02
2019-05-25T17:05:01.765Z,20.00
2019-05-25T17:07:32.858Z,19.98
2019-05-25T17:10:06.291Z,19.97
2019-05-25T17:12:37.471Z,19.98
2019-05-25T17:15:08.727Z,19.96
2019-05-25T17:17:39.830Z,19.95
2019-05-25T17:20:11.072Z,19.93
2019-05-25T17:22:42.158Z,19.91
2019-05-25T17:25:13.410Z,19.93
2019-05-25T17:27:44.533Z,19.94
2019-05-25T17:30:19.059Z,19.93
2019-05-25T17:32:50.166Z,19.94
2019-05-25T17:35:21.320Z,19.96
2019-05-25T17:37:52.495Z,19.96
2019-05-25T17:40:24.142Z,19.97
2019-05-25T17:42:55.236Z,19.97
2019-05-25T17:45:26.484Z,19.97
2019-05-25T17:47:57.934Z,19.93
2019-05-25T17:50:28.997Z,19.92
2019-05-25T17:53:01.652Z,19.91
2019-05-25T17:55:34.272Z,19.91
2019-05-25T17:58:05.480Z,19.92
2019-05-25T18:00:48.502Z,19.90
2019-05-25T18:03:20.790Z,19.90
2019-05-25T18:05:51.954Z,19.86
2019-05-25T18:08:24.101Z,19.85
2019-05-25T18:10:55.216Z,19.84
2019-05-25T18:13:28.894Z,19.84
2019-05-25T18:15:59.067Z,19.85
2019-05-25T18:18:30.201Z,19.84
2019-05-25T18:21:02.365Z,19.81
2019-05-25T18:23:33.441Z,19.81
2019-05-25T18:26:04.520Z,19.79
2019-05-25T18:28:36.631Z,19.76
2019-05-25T18:31:07.705Z,19.76
2019-05-25T18:33:38.766Z,19.74
2019-05-25T18:36:09.826Z,19.75
2019-05-25T18:38:40.910Z,19.75
2019-05-25T18:41:11.997Z,19.73
2019-05-25T18:43:43.061Z,19.72
2019-05-25T18:46:14.128Z,19.70
2019-05-25T18:48:45.223Z,19.70
2019-05-25T18:51:16.981Z,19.70
2019-05-25T18:53:48.071Z,19.70
2019-05-25T18:56:19.146Z,19.71
2019-05-25T18:58:50.266Z,19.72
2019-05-25T19:01:21.305Z,19.72
2019-05-25T19:03:52.407Z,19.72
2019-05-25T19:06:23.466Z,19.72
2019-05-25T19:08:54.559Z,19.72
2019-05-25T19:11:25.644Z,19.70
2019-05-25T19:13:57.010Z,19.70
2019-05-25T19:16:28.103Z,19.70
2019-05-25T19:18:59.160Z,19.70
2019-05-25T19:21:30.240Z,19.68
2019-05-25T19:24:01.306Z,19.68
2019-05-25T19:26:32.381Z,19.63
2019-05-25T19:29:05.742Z,19.63
2019-05-25T19:31:37.458Z,19.60
2019-05-25T19:34:08.659Z,19.58
2019-05-25T19:36:39.739Z,19.57
2019-05-25T19:39:10.860Z,19.55
2019-05-25T19:41:41.989Z,19.54
2019-05-25T19:44:13.627Z,19.53
2019-05-25T19:46:46.166Z,19.49
2019-05-25T19:49:17.314Z,19.48
2019-05-25T19:51:48.434Z,19.45
2019-05-25T19:54:19.572Z,19.42
2019-05-25T19:56:50.827Z,19.41
2019-05-25T19:59:22.044Z,19.38
2019-05-25T20:01:54.252Z,19.37
2019-05-25T20:04:25.333Z,19.33
2019-05-25T20:06:56.913Z,19.30
2019-05-25T20:09:28.002Z,19.28
2019-05-25T20:11:59.139Z,19.26
2019-05-25T20:14:30.253Z,19.21
2019-05-25T20:17:01.414Z,19.17
2019-05-25T20:19:32.525Z,19.14
2019-05-25T20:22:03.628Z,19.09
2019-05-25T20:24:34.710Z,19.04
2019-05-25T20:27:05.826Z,18.97
2019-05-25T20:29:36.952Z,18.92
2019-05-25T20:32:08.079Z,18.86
2019-05-25T20:34:39.183Z,18.83
2019-05-25T20:37:10.291Z,18.78
2019-05-25T20:39:41.427Z,18.74
2019-05-25T20:42:14.983Z,18.70
2019-05-25T20:44:45.382Z,18.65
2019-05-25T20:47:17.019Z,18.60
2019-05-25T20:49:48.132Z,18.54
2019-05-25T20:52:19.288Z,18.50
2019-05-25T20:54:50.755Z,18.46
2019-05-25T20:57:21.813Z,18.42
2019-05-25T20:59:52.906Z,18.37
2019-05-25T21:02:24.480Z,18.33
2019-05-25T21:04:56.766Z,18.27
2019-05-25T21:07:27.864Z,18.25
2019-05-25T21:09:58.975Z,18.20
2019-05-25T21:12:30.062Z,18.15
2019-05-25T21:15:01.454Z,18.12
2019-05-25T21:17:32.568Z,18.07
2019-05-25T21:22:33.639Z,17.99
2019-05-25T21:25:07.548Z,17.97
2019-05-25T21:27:39.723Z,17.94
2019-05-25T21:30:11.160Z,17.90
2019-05-25T21:32:42.285Z,17.87
2019-05-25T21:35:13.720Z,17.84
2019-05-25T21:37:44.848Z,17.81
2019-05-25T21:40:18.159Z,17.78
2019-05-25T21:42:49.284Z,17.73
2019-05-25T21:45:20.578Z,17.71
2019-05-25T21:47:55.644Z,17.68
2019-05-25T21:50:24.501Z,17.65
2019-05-25T21:52:57.176Z,17.61
2019-05-25T21:55:28.349Z,17.59
2019-05-25T21:57:59.458Z,17.55
2019-05-25T22:00:32.663Z,17.53
2019-05-25T22:03:04.332Z,17.51
2019-05-25T22:05:35.322Z,17.42
2019-05-25T22:08:06.414Z,17.41
2019-05-25T22:10:37.534Z,17.38
2019-05-25T22:13:24.955Z,17.34
2019-05-25T22:15:41.527Z,17.31
2019-05-25T22:18:12.691Z,17.29
2019-05-25T22:20:43.773Z,17.25
2019-05-25T22:23:14.949Z,17.24
2019-05-25T22:25:46.089Z,17.22
2019-05-25T22:28:18.091Z,17.19
2019-05-25T22:30:49.191Z,17.15
2019-05-25T22:33:20.294Z,17.14
2019-05-25T22:35:51.409Z,17.11
2019-05-25T22:38:22.514Z,17.09
2019-05-25T22:40:53.615Z,17.06
2019-05-25T22:43:24.734Z,17.04
2019-05-25T22:45:56.917Z,16.99
2019-05-25T22:48:28.023Z,16.96
2019-05-25T22:50:59.203Z,16.94
2019-05-25T22:53:30.306Z,16.91
2019-05-25T22:56:01.563Z,16.89
2019-05-25T22:58:32.658Z,16.87
2019-05-25T23:01:03.800Z,16.84
2019-05-25T23:03:34.933Z,16.81
2019-05-25T23:06:06.050Z,16.79
2019-05-25T23:08:37.181Z,16.77
2019-05-25T23:11:08.321Z,16.74
2019-05-25T23:13:39.471Z,16.72
2019-05-25T23:16:12.184Z,16.70
2019-05-25T23:18:43.299Z,16.68
2019-05-25T23:21:14.388Z,16.66
2019-05-25T23:23:45.461Z,16.65
2019-05-25T23:26:16.955Z,16.61
2019-05-25T23:28:49.120Z,16.61
2019-05-25T23:31:20.260Z,16.58
2019-05-25T23:33:51.300Z,16.55
2019-05-25T23:36:22.411Z,16.52
2019-05-25T23:38:53.523Z,16.51
2019-05-25T23:41:24.643Z,16.47
2019-05-25T23:43:59.800Z,16.45
2019-05-25T23:46:30.148Z,16.43
2019-05-25T23:49:01.754Z,16.40
2019-05-25T23:51:32.823Z,16.39
2019-05-25T23:54:04.006Z,16.37
2019-05-25T23:56:35.128Z,16.37
2019-05-25T23:59:06.227Z,16.34
